createdAt,value
2023-03-10T00:00:39.777Z,45.67
2023-03-10T00:03:06.221Z,42.03
2023-03-10T00:05:33.098Z,38.45
2023-03-10T00:07:59.673Z,39.72
2023-03-10T00:10:26.278Z,42.38
2023-03-10T00:12:52.776Z,42.38
2023-03-10T00:15:19.270Z,45.13
2023-03-10T00:17:45.743Z,42.50
2023-03-10T00:20:12.978Z,43.20
2023-03-10T00:22:41.674Z,41.92
2023-03-10T00:25:09.680Z,42.90
2023-03-10T00:27:36.332Z,43.20
2023-03-10T00:30:03.436Z,42.88
2023-03-10T00:32:30.094Z,43.03
2023-03-10T00:34:56.705Z,42.75
2023-03-10T00:37:23.169Z,42.72
2023-03-10T00:39:52.865Z,42.00
2023-03-10T00:42:20.154Z,38.83
2023-03-10T00:44:46.877Z,40.83
2023-03-10T00:47:13.385Z,36.33
2023-03-10T00:49:39.822Z,33.90
2023-03-10T00:52:06.478Z,37.95
2023-03-10T00:54:32.864Z,33.58
2023-03-10T00:56:59.339Z,36.35
2023-03-10T00:59:25.779Z,25.27
2023-03-10T01:01:52.237Z,34.42
2023-03-10T01:04:19.913Z,32.95
2023-03-10T01:06:47.654Z,26.90
2023-03-10T01:09:14.415Z,27.80
2023-03-10T01:11:41.006Z,26.95
2023-03-10T01:14:08.943Z,24.42
2023-03-10T01:16:35.384Z,31.80
2023-03-10T01:19:02.103Z,21.05
2023-03-10T01:21:31.222Z,25.05
2023-03-10T01:23:57.677Z,27.75
2023-03-10T01:26:24.099Z,26.48
2023-03-10T01:28:50.567Z,29.38
2023-03-10T01:31:18.193Z,34.78
2023-03-10T01:33:45.986Z,36.97
2023-03-10T01:36:23.882Z,33.55
2023-03-10T01:38:50.412Z,31.77
2023-03-10T01:41:17.769Z,32.55
2023-03-10T01:43:49.338Z,29.67
2023-03-10T01:46:33.967Z,35.30
2023-03-10T01:49:04.780Z,33.65
2023-03-10T01:51:35.851Z,39.63
2023-03-10T01:54:05.823Z,41.33
2023-03-10T01:56:32.275Z,41.97
2023-03-10T01:58:58.798Z,34.10
2023-03-10T02:01:25.624Z,45.95
2023-03-10T02:04:01.873Z,41.75
2023-03-10T02:06:29.125Z,35.25
2023-03-10T02:08:59.499Z,42.00
2023-03-10T02:11:26.009Z,44.97
2023-03-10T02:13:54.042Z,37.22
2023-03-10T02:16:22.696Z,42.22
2023-03-10T02:18:49.583Z,40.53
2023-03-10T02:21:21.530Z,40.88
2023-03-10T02:24:29.466Z,37.92
2023-03-10T02:27:04.620Z,43.30
2023-03-10T02:29:42.624Z,42.38
2023-03-10T02:32:14.393Z,44.03
2023-03-10T02:34:41.172Z,45.50
2023-03-10T02:37:07.581Z,41.20
2023-03-10T02:39:33.975Z,43.40
2023-03-10T02:42:00.430Z,39.78
2023-03-10T02:44:27.369Z,44.13
2023-03-10T02:46:53.821Z,35.92
2023-03-10T02:49:23.213Z,43.58
2023-03-10T02:51:49.678Z,47.97
2023-03-10T02:54:16.242Z,42.33
2023-03-10T02:56:43.052Z,42.17
2023-03-10T02:59:10.048Z,40.65
2023-03-10T03:01:36.484Z,49.45
2023-03-10T03:04:03.539Z,42.63
2023-03-10T03:06:30.453Z,46.85
2023-03-10T03:08:57.192Z,47.65
2023-03-10T03:11:23.958Z,42.67
2023-03-10T03:13:50.963Z,45.05
2023-03-10T03:16:18.175Z,40.63
2023-03-10T03:18:44.702Z,42.38
2023-03-10T03:21:15.813Z,38.08
2023-03-10T03:23:42.873Z,42.88
2023-03-10T03:26:23.937Z,43.42
2023-03-10T03:28:52.101Z,44.50
2023-03-10T03:31:21.852Z,49.75
2023-03-10T03:33:48.673Z,47.50
2023-03-10T03:36:15.512Z,40.28
2023-03-10T03:38:42.082Z,43.28
2023-03-10T03:41:08.735Z,45.95
2023-03-10T03:43:35.251Z,45.50
2023-03-10T03:46:01.698Z,45.65
2023-03-10T03:48:28.255Z,44.63
2023-03-10T03:50:54.648Z,37.65
2023-03-10T03:53:21.107Z,36.50
2023-03-10T03:55:47.537Z,38.30
2023-03-10T03:58:13.975Z,38.88
2023-03-10T04:00:40.773Z,40.92
2023-03-10T04:03:07.426Z,39.38
2023-03-10T04:05:33.995Z,43.38
2023-03-10T04:08:00.468Z,36.80
2023-03-10T04:10:29.761Z,43.72
2023-03-10T04:12:56.333Z,37.13
2023-03-10T04:15:22.833Z,37.47
2023-03-10T04:17:49.252Z,42.85
2023-03-10T04:20:16.120Z,34.78
2023-03-10T04:22:42.555Z,40.60
2023-03-10T04:25:09.106Z,37.85
2023-03-10T04:27:36.292Z,37.90
2023-03-10T04:30:03.669Z,44.63
2023-03-10T04:32:30.167Z,39.25
2023-03-10T04:34:56.621Z,43.30
2023-03-10T04:37:23.092Z,39.55
2023-03-10T04:39:49.529Z,39.45
2023-03-10T04:42:15.968Z,37.45
2023-03-10T04:44:42.511Z,39.92
2023-03-10T04:47:08.968Z,40.85
2023-03-10T04:49:37.109Z,43.30
2023-03-10T04:52:03.521Z,41.35
2023-03-10T04:54:29.962Z,37.28
2023-03-10T04:56:57.341Z,39.75
2023-03-10T04:59:24.442Z,41.95
2023-03-10T05:01:52.322Z,36.60
2023-03-10T05:04:18.862Z,37.28
2023-03-10T05:06:45.335Z,35.22
2023-03-10T05:09:11.800Z,43.80
2023-03-10T05:11:38.234Z,39.00
2023-03-10T05:14:04.665Z,49.47
2023-03-10T05:16:31.108Z,41.55
2023-03-10T05:18:57.550Z,42.20
2023-03-10T05:21:24.155Z,35.63
2023-03-10T05:23:50.687Z,38.40
2023-03-10T05:26:17.521Z,35.78
2023-03-10T05:28:44.362Z,35.90
2023-03-10T05:31:13.213Z,39.80
2023-03-10T05:33:40.427Z,38.80
2023-03-10T05:36:12.114Z,36.65
2023-03-10T05:38:38.823Z,40.92
2023-03-10T05:41:09.831Z,38.97
2023-03-10T05:43:37.339Z,36.95
2023-03-10T05:46:04.306Z,39.38
2023-03-10T05:48:30.907Z,47.58
2023-03-10T05:51:01.913Z,44.35
2023-03-10T05:53:30.014Z,34.45
2023-03-10T05:55:57.102Z,35.75
2023-03-10T05:58:25.196Z,39.88
2023-03-10T06:00:52.568Z,38.70
2023-03-10T06:03:19.878Z,29.77
2023-03-10T06:05:46.442Z,28.30
2023-03-10T06:08:12.882Z,33.30
2023-03-10T06:10:39.437Z,47.83
2023-03-10T06:13:06.020Z,43.55
2023-03-10T06:15:32.472Z,46.15
2023-03-10T06:17:58.930Z,41.70
2023-03-10T06:20:26.599Z,47.40
2023-03-10T06:22:53.377Z,42.00
2023-03-10T06:25:20.885Z,39.17
2023-03-10T06:27:47.473Z,43.10
2023-03-10T06:30:14.944Z,40.25
2023-03-10T06:32:41.715Z,32.83
2023-03-10T06:35:08.554Z,41.17
2023-03-10T06:37:35.078Z,47.05
2023-03-10T06:40:01.634Z,44.97
2023-03-10T06:42:28.088Z,54.50
2023-03-10T06:44:55.213Z,46.45
2023-03-10T06:47:21.786Z,44.50
2023-03-10T06:49:48.593Z,48.80
2023-03-10T06:52:15.104Z,51.35
2023-03-10T06:54:42.857Z,49.25
2023-03-10T06:57:09.349Z,56.92
2023-03-10T06:59:35.782Z,47.83
2023-03-10T07:02:02.270Z,47.28
2023-03-10T07:04:28.721Z,48.03
2023-03-10T07:06:55.207Z,49.28
2023-03-10T07:09:21.673Z,55.10
2023-03-10T07:11:48.112Z,45.47
2023-03-10T07:14:14.565Z,50.65
2023-03-10T07:16:41.196Z,49.60
2023-03-10T07:19:07.772Z,42.15
2023-03-10T07:21:34.271Z,46.15
2023-03-10T07:24:00.734Z,49.53
2023-03-10T07:26:27.365Z,43.83
2023-03-10T07:28:54.342Z,41.13
2023-03-10T07:31:21.257Z,49.22
2023-03-10T07:33:49.274Z,48.90
2023-03-10T07:36:17.838Z,45.13
2023-03-10T07:38:45.437Z,47.97
2023-03-10T07:41:16.578Z,47.55
2023-03-10T07:43:43.203Z,41.17
2023-03-10T07:46:12.440Z,45.55
2023-03-10T07:48:40.657Z,46.65
2023-03-10T07:51:07.534Z,43.10
2023-03-10T07:53:34.286Z,53.28
2023-03-10T07:56:04.753Z,42.58
2023-03-10T07:58:31.581Z,52.83
2023-03-10T08:00:59.070Z,44.72
2023-03-10T08:03:27.143Z,46.15
2023-03-10T08:05:53.875Z,41.38
2023-03-10T08:08:20.682Z,43.88
2023-03-10T08:10:47.431Z,45.20
2023-03-10T08:13:14.387Z,52.25
2023-03-10T08:15:41.162Z,58.55
2023-03-10T08:18:09.310Z,41.30
2023-03-10T08:20:36.787Z,44.47
2023-03-10T08:23:03.923Z,43.85
2023-03-10T08:25:31.105Z,44.88
2023-03-10T08:27:57.816Z,46.08
2023-03-10T08:30:24.536Z,44.47
2023-03-10T08:32:51.302Z,43.83
2023-03-10T08:35:18.095Z,36.63
2023-03-10T08:37:44.646Z,43.05
2023-03-10T08:40:14.310Z,40.22
2023-03-10T08:42:40.787Z,39.40
2023-03-10T08:45:08.847Z,41.85
2023-03-10T08:47:35.770Z,40.17
2023-03-10T08:50:02.377Z,34.95
2023-03-10T08:52:28.838Z,35.47
2023-03-10T08:54:55.256Z,39.90
2023-03-10T08:57:22.067Z,33.80
2023-03-10T08:59:48.643Z,39.90
2023-03-10T09:02:15.306Z,43.10
2023-03-10T09:04:42.574Z,42.50
2023-03-10T09:07:09.652Z,40.55
2023-03-10T09:09:36.268Z,49.67
2023-03-10T09:12:03.480Z,36.22
2023-03-10T09:14:29.991Z,33.25
2023-03-10T09:16:56.450Z,34.45
2023-03-10T09:19:22.968Z,36.15
2023-03-10T09:21:49.511Z,29.63
2023-03-10T09:24:15.961Z,37.28
2023-03-10T09:26:44.711Z,37.88
2023-03-10T09:29:12.111Z,34.88
2023-03-10T09:31:39.588Z,34.55
2023-03-10T09:34:08.320Z,31.45
2023-03-10T09:36:35.615Z,36.35
2023-03-10T09:39:02.460Z,34.10
2023-03-10T09:41:38.088Z,38.20
2023-03-10T09:44:22.426Z,28.67
2023-03-10T09:47:02.505Z,37.80
2023-03-10T09:49:39.142Z,37.35
2023-03-10T09:52:35.017Z,30.80
2023-03-10T09:55:23.499Z,34.95
2023-03-10T09:57:53.223Z,30.80
2023-03-10T10:00:29.220Z,27.55
2023-03-10T10:03:51.471Z,25.30
2023-03-10T10:06:28.891Z,29.85
2023-03-10T10:09:05.048Z,30.20
2023-03-10T10:11:33.962Z,24.75
2023-03-10T10:14:26.157Z,27.13
2023-03-10T10:17:03.416Z,29.77
2023-03-10T10:19:30.013Z,27.15
2023-03-10T10:22:10.377Z,28.20
2023-03-10T10:24:36.826Z,28.08
2023-03-10T10:27:03.351Z,35.78
2023-03-10T10:29:37.224Z,27.90
2023-03-10T10:32:10.357Z,29.67
2023-03-10T10:34:42.251Z,28.27
2023-03-10T10:37:37.238Z,20.92
2023-03-10T10:40:24.792Z,21.98
2023-03-10T10:42:53.809Z,26.38
2023-03-10T10:45:32.764Z,22.58
2023-03-10T10:47:59.323Z,15.82
2023-03-10T10:50:28.812Z,18.20
2023-03-10T10:53:24.258Z,16.33
2023-03-10T10:56:06.356Z,18.77
2023-03-10T10:58:38.317Z,18.15
2023-03-10T11:01:07.706Z,21.88
2023-03-10T11:03:39.467Z,18.58
2023-03-10T11:06:18.169Z,24.02
2023-03-10T11:08:50.831Z,13.25
2023-03-10T11:11:29.542Z,18.55
2023-03-10T11:14:20.863Z,19.35
2023-03-10T11:16:52.966Z,18.58
2023-03-10T11:19:32.016Z,16.00
2023-03-10T11:22:23.682Z,17.05
2023-03-10T11:25:21.769Z,16.95
2023-03-10T11:27:51.948Z,18.65
2023-03-10T11:30:29.671Z,16.73
2023-03-10T11:33:28.558Z,18.05
2023-03-10T11:36:14.218Z,12.73
2023-03-10T11:38:46.108Z,17.38
2023-03-10T11:41:24.899Z,14.10
2023-03-10T11:44:07.454Z,18.10
2023-03-10T11:46:40.069Z,20.70
2023-03-10T11:49:12.725Z,17.17
2023-03-10T11:51:58.485Z,21.83
2023-03-10T11:54:30.859Z,18.33
2023-03-10T11:56:58.285Z,19.70
2023-03-10T11:59:27.954Z,19.73
2023-03-10T12:02:10.574Z,15.05
2023-03-10T12:04:53.985Z,20.10
2023-03-10T12:07:34.080Z,22.63
2023-03-10T12:10:14.921Z,17.48
2023-03-10T12:12:44.596Z,21.42
2023-03-10T12:15:36.942Z,20.08
2023-03-10T12:18:06.582Z,21.42
2023-03-10T12:20:34.769Z,15.05
2023-03-10T12:23:26.973Z,17.33
2023-03-10T12:25:53.726Z,17.88
2023-03-10T12:28:26.280Z,17.58
2023-03-10T12:31:11.098Z,23.42
2023-03-10T12:33:49.663Z,19.35
2023-03-10T12:36:37.301Z,15.88
2023-03-10T12:39:28.297Z,17.33
2023-03-10T12:41:55.842Z,21.50
2023-03-10T12:44:22.280Z,15.27
2023-03-10T12:46:53.220Z,23.20
2023-03-10T12:49:41.430Z,25.75
2023-03-10T12:52:26.508Z,22.00
2023-03-10T12:55:22.143Z,21.58
2023-03-10T12:57:54.640Z,19.73
2023-03-10T13:00:42.390Z,21.88
2023-03-10T13:03:19.574Z,18.73
2023-03-10T13:06:01.411Z,19.80
2023-03-10T13:08:39.177Z,21.40
2023-03-10T13:11:16.096Z,24.52
2023-03-10T13:13:43.322Z,31.25
2023-03-10T13:16:21.160Z,25.15
2023-03-10T13:18:49.799Z,25.13
2023-03-10T13:21:29.452Z,20.52
2023-03-10T13:23:57.217Z,20.58
2023-03-10T13:26:25.261Z,27.42
2023-03-10T13:28:54.698Z,24.60
2023-03-10T13:31:33.955Z,23.70
2023-03-10T13:34:17.791Z,25.63
2023-03-10T13:36:44.341Z,22.00
2023-03-10T13:39:27.378Z,27.85
2023-03-10T13:41:58.337Z,23.25
2023-03-10T13:44:31.952Z,27.00
2023-03-10T13:47:00.910Z,25.50
2023-03-10T13:49:32.208Z,22.33
2023-03-10T13:52:05.351Z,21.35
2023-03-10T13:54:37.623Z,24.08
2023-03-10T13:57:19.517Z,23.42
2023-03-10T13:59:47.600Z,22.90
2023-03-10T14:02:19.068Z,26.48
2023-03-10T14:04:51.358Z,22.60
2023-03-10T14:07:27.696Z,24.02
2023-03-10T14:10:06.217Z,30.05
2023-03-10T14:12:35.533Z,28.13
2023-03-10T14:15:14.060Z,26.85
2023-03-10T14:17:44.839Z,23.50
2023-03-10T14:20:24.215Z,24.13
2023-03-10T14:22:50.639Z,27.80
2023-03-10T14:25:19.415Z,27.45
2023-03-10T14:27:52.168Z,24.45
2023-03-10T14:30:28.574Z,27.80
2023-03-10T14:32:56.491Z,26.20
2023-03-10T14:35:24.922Z,34.38
2023-03-10T14:37:52.213Z,25.40
2023-03-10T14:40:21.506Z,23.80
2023-03-10T14:42:50.622Z,29.08
2023-03-10T14:45:35.603Z,29.42
2023-03-10T14:48:07.736Z,32.25
2023-03-10T14:50:34.269Z,31.08
2023-03-10T14:53:00.789Z,22.27
2023-03-10T14:55:28.563Z,32.97
2023-03-10T14:58:00.943Z,31.52
2023-03-10T15:00:27.862Z,26.92
2023-03-10T15:02:54.357Z,31.30
2023-03-10T15:05:27.584Z,31.50
2023-03-10T15:07:56.285Z,25.65
2023-03-10T15:10:23.704Z,25.17
2023-03-10T15:12:53.055Z,27.13
2023-03-10T15:15:25.042Z,26.70
2023-03-10T15:17:52.073Z,21.25
2023-03-10T15:20:25.060Z,27.65
2023-03-10T15:22:51.981Z,59.05
2023-03-10T15:25:21.269Z,55.88
2023-03-10T15:27:49.766Z,30.27
2023-03-10T15:30:26.714Z,21.77
2023-03-10T15:32:54.133Z,31.50
2023-03-10T15:35:21.756Z,29.50
2023-03-10T15:37:50.522Z,28.20
2023-03-10T15:40:23.169Z,21.98
2023-03-10T15:42:50.023Z,23.80
2023-03-10T15:45:18.413Z,26.83
2023-03-10T15:47:46.193Z,25.77
2023-03-10T15:50:13.929Z,25.65
2023-03-10T15:52:44.956Z,29.40
2023-03-10T15:55:14.819Z,36.00
2023-03-10T15:57:41.532Z,32.08
2023-03-10T16:00:09.168Z,23.20
2023-03-10T16:02:35.579Z,23.65
2023-03-10T16:05:02.080Z,30.58
2023-03-10T16:07:28.558Z,29.95
2023-03-10T16:09:55.475Z,25.23
2023-03-10T16:12:23.438Z,42.92
2023-03-10T16:14:50.216Z,24.95
2023-03-10T16:17:16.855Z,22.60
2023-03-10T16:19:43.334Z,24.40
2023-03-10T16:22:10.371Z,20.33
2023-03-10T16:24:36.815Z,21.17
2023-03-10T16:27:03.496Z,23.65
2023-03-10T16:29:30.155Z,26.55
2023-03-10T16:31:56.668Z,39.08
2023-03-10T16:34:23.097Z,27.65
2023-03-10T16:36:50.518Z,24.83
2023-03-10T16:39:17.953Z,24.52
2023-03-10T16:41:44.599Z,40.55
2023-03-10T16:44:13.286Z,23.80
2023-03-10T16:46:39.838Z,22.05
2023-03-10T16:49:07.196Z,25.02
2023-03-10T16:51:39.458Z,23.80
2023-03-10T16:54:12.015Z,23.48
2023-03-10T16:56:41.297Z,24.83
2023-03-10T16:59:08.427Z,28.27
2023-03-10T17:01:35.036Z,25.83
2023-03-10T17:04:01.595Z,22.42
2023-03-10T17:06:30.645Z,25.35
2023-03-10T17:08:58.355Z,19.63
2023-03-10T17:11:27.682Z,22.38
2023-03-10T17:13:57.808Z,21.27
2023-03-10T17:16:28.323Z,19.33
2023-03-10T17:19:01.802Z,18.80
2023-03-10T17:21:33.237Z,17.40
2023-03-10T17:24:00.095Z,22.00
2023-03-10T17:26:26.626Z,20.55
2023-03-10T17:28:53.124Z,18.92
2023-03-10T17:31:28.829Z,25.10
2023-03-10T17:33:58.180Z,20.30
2023-03-10T17:36:24.925Z,16.45
2023-03-10T17:39:00.502Z,17.35
2023-03-10T17:41:28.466Z,19.98
2023-03-10T17:43:55.039Z,16.00
2023-03-10T17:46:25.223Z,21.20
2023-03-10T17:48:52.534Z,23.48
2023-03-10T17:51:22.131Z,27.20
2023-03-10T17:53:48.845Z,29.35
2023-03-10T17:56:16.357Z,19.73
2023-03-10T17:58:43.569Z,24.05
2023-03-10T18:01:18.017Z,18.90
2023-03-10T18:03:47.624Z,27.63
2023-03-10T18:06:17.405Z,18.33
2023-03-10T18:08:43.884Z,18.02
2023-03-10T18:11:11.182Z,21.08
2023-03-10T18:13:38.105Z,16.33
2023-03-10T18:16:06.008Z,19.60
2023-03-10T18:18:32.912Z,17.65
2023-03-10T18:20:59.646Z,16.30
2023-03-10T18:23:26.675Z,21.52
2023-03-10T18:25:53.322Z,22.00
2023-03-10T18:28:20.452Z,15.93
2023-03-10T18:30:49.957Z,15.50
2023-03-10T18:33:16.638Z,17.30
2023-03-10T18:35:45.667Z,19.83
2023-03-10T18:38:13.846Z,16.30
2023-03-10T18:40:41.387Z,15.98
2023-03-10T18:43:08.219Z,17.35
2023-03-10T18:45:34.829Z,20.67
2023-03-10T18:48:01.510Z,16.73
2023-03-10T18:50:27.936Z,18.38
2023-03-10T18:52:54.336Z,15.93
2023-03-10T18:55:20.764Z,14.15
2023-03-10T18:57:47.306Z,14.85
2023-03-10T19:00:14.973Z,13.57
2023-03-10T19:02:42.630Z,11.57
2023-03-10T19:05:16.451Z,11.32
2023-03-10T19:07:42.924Z,9.15
2023-03-10T19:10:12.970Z,8.65
2023-03-10T19:12:40.376Z,5.25
2023-03-10T19:15:09.115Z,2.75
2023-03-10T19:17:37.560Z,3.88
2023-03-10T19:20:07.622Z,3.38
2023-03-10T19:22:34.898Z,3.33
2023-03-10T19:25:03.405Z,10.07
2023-03-10T19:27:30.636Z,5.70
2023-03-10T19:29:57.932Z,5.18
2023-03-10T19:32:25.433Z,6.85
2023-03-10T19:34:51.950Z,4.15
2023-03-10T19:37:18.818Z,8.30
2023-03-10T19:39:45.286Z,4.30
2023-03-10T19:42:11.705Z,3.40
2023-03-10T19:44:39.380Z,3.00
2023-03-10T19:47:06.802Z,7.47
2023-03-10T19:49:34.185Z,3.03
2023-03-10T19:52:01.358Z,4.97
2023-03-10T19:54:28.109Z,6.22
2023-03-10T19:56:54.619Z,4.85
2023-03-10T19:59:21.112Z,4.25
2023-03-10T20:01:49.232Z,5.97
2023-03-10T20:04:16.168Z,3.20
2023-03-10T20:06:42.758Z,6.45
2023-03-10T20:09:10.578Z,3.60
2023-03-10T20:11:40.761Z,6.32
2023-03-10T20:14:08.172Z,3.03
2023-03-10T20:16:34.794Z,4.60
2023-03-10T20:19:01.576Z,8.15
2023-03-10T20:21:28.042Z,4.18
2023-03-10T20:23:56.148Z,8.57
2023-03-10T20:26:23.090Z,3.95
2023-03-10T20:28:50.578Z,3.42
2023-03-10T20:31:22.908Z,3.95
2023-03-10T20:33:49.478Z,2.22
2023-03-10T20:36:16.127Z,1.38
2023-03-10T20:38:44.970Z,4.82
2023-03-10T20:41:15.441Z,3.90
2023-03-10T20:43:43.234Z,1.88
2023-03-10T20:46:10.530Z,1.27
2023-03-10T20:48:37.519Z,1.20
2023-03-10T20:51:04.103Z,4.00
2023-03-10T20:53:33.160Z,4.35
2023-03-10T20:56:00.531Z,3.83
2023-03-10T20:58:27.419Z,1.92
2023-03-10T21:00:53.917Z,2.38
2023-03-10T21:03:21.523Z,2.13
2023-03-10T21:05:48.028Z,4.50
2023-03-10T21:08:14.482Z,4.13
2023-03-10T21:10:41.647Z,1.17
2023-03-10T21:13:08.060Z,1.40
2023-03-10T21:15:34.524Z,1.95
2023-03-10T21:18:00.911Z,1.83
2023-03-10T21:20:27.420Z,6.97
2023-03-10T21:22:53.906Z,4.63
2023-03-10T21:25:23.684Z,0.73
2023-03-10T21:27:52.984Z,4.40
2023-03-10T21:30:21.291Z,2.05
2023-03-10T21:32:48.061Z,5.05
2023-03-10T21:35:15.079Z,1.30
2023-03-10T21:37:42.518Z,1.15
2023-03-10T21:40:11.840Z,2.40
2023-03-10T21:42:38.288Z,1.30
2023-03-10T21:45:05.534Z,1.92
2023-03-10T21:47:31.995Z,1.80
2023-03-10T21:49:58.424Z,1.23
2023-03-10T21:52:26.876Z,1.13
2023-03-10T21:54:53.298Z,2.13
2023-03-10T21:57:19.759Z,2.38
2023-03-10T21:59:46.194Z,3.25
2023-03-10T22:02:28.006Z,2.80
2023-03-10T22:04:55.582Z,1.25
2023-03-10T22:07:22.219Z,3.17
2023-03-10T22:09:49.020Z,1.48
2023-03-10T22:12:15.992Z,1.48
2023-03-10T22:14:43.070Z,1.30
2023-03-10T22:17:09.668Z,3.00
2023-03-10T22:19:36.071Z,1.63
2023-03-10T22:22:02.815Z,0.50
2023-03-10T22:24:29.265Z,2.75
2023-03-10T22:26:55.699Z,2.40
2023-03-10T22:29:22.131Z,0.60
2023-03-10T22:31:51.697Z,1.33
2023-03-10T22:34:18.197Z,1.85
2023-03-10T22:36:44.663Z,1.35
2023-03-10T22:39:11.152Z,3.58
2023-03-10T22:41:38.777Z,3.72
2023-03-10T22:44:05.495Z,1.35
2023-03-10T22:46:32.424Z,1.15
2023-03-10T22:48:59.067Z,2.30
2023-03-10T22:51:25.463Z,0.68
2023-03-10T22:53:51.909Z,1.95
2023-03-10T22:56:18.449Z,0.88
2023-03-10T22:58:44.862Z,1.20
2023-03-10T23:01:11.233Z,0.60
2023-03-10T23:03:37.678Z,0.98
2023-03-10T23:06:05.988Z,0.70
2023-03-10T23:08:33.114Z,3.10
2023-03-10T23:10:59.493Z,1.80
2023-03-10T23:13:26.101Z,1.10
2023-03-10T23:15:52.554Z,1.38
2023-03-10T23:18:19.712Z,2.15
2023-03-10T23:20:49.047Z,0.63
2023-03-10T23:23:18.093Z,0.70
2023-03-10T23:25:47.219Z,2.67
2023-03-10T23:28:14.913Z,1.50
2023-03-10T23:30:43.157Z,3.13
2023-03-10T23:33:12.858Z,1.45
2023-03-10T23:35:39.268Z,4.25
2023-03-10T23:38:06.180Z,2.15
2023-03-10T23:40:33.848Z,0.82
2023-03-10T23:43:03.810Z,0.70
2023-03-10T23:45:31.938Z,1.95
2023-03-10T23:48:01.524Z,2.20
2023-03-10T23:50:33.959Z,2.08
2023-03-10T23:53:01.564Z,2.30
2023-03-10T23:55:32.306Z,1.70
2023-03-10T23:57:59.184Z,1.75
